Time;durP1;ratioP1;P1;durP2;ratioP2;P2;SDS_P1;SDS_P2;PMS_P1;PMS_P2;Temp;Humidity;BMP_temperature;BMP_pressure;BME280_temperature;BME280_humidity;BME280_pressure;Samples;Min_cycle;Max_cycle;Signal;HPM_P1;HPM_P2
2022/06/28 00:00:43;;;;;;;3.58;1.67;;;;;;;10.96;100.00;102105.06;5212954;28;20029;-71
2022/06/28 00:03:14;;;;;;;6.93;1.73;;;;;;;10.99;100.00;102108.31;5226276;28;20064;-72
2022/06/28 00:05:44;;;;;;;7.40;1.95;;;;;;;10.98;100.00;102111.13;5212411;28;20086;-70
2022/06/28 00:08:15;;;;;;;6.35;1.60;;;;;;;10.92;100.00;102112.53;5214790;28;20463;-71
2022/06/28 00:10:45;;;;;;;4.32;1.70;;;;;;;10.83;100.00;102108.00;5223174;28;20059;-71
2022/06/28 00:13:16;;;;;;;5.95;1.65;;;;;;;10.80;100.00;102109.13;5225929;28;20059;-72
2022/06/28 00:18:38;;;;;;;9.77;2.30;;;;;;;10.77;100.00;102116.59;5218563;28;20021;-71
2022/06/28 00:21:10;;;;;;;6.78;1.63;;;;;;;10.77;100.00;102116.59;5214913;28;20044;-71
2022/06/28 00:23:42;;;;;;;8.43;2.00;;;;;;;10.77;100.00;102111.22;5212320;28;20029;-72
2022/06/28 00:26:13;;;;;;;8.15;2.40;;;;;;;10.75;100.00;102118.59;5214017;28;20048;-71
2022/06/28 00:28:43;;;;;;;4.63;1.73;;;;;;;10.78;100.00;102116.44;5215577;28;20018;-71
2022/06/28 00:31:14;;;;;;;5.82;2.15;;;;;;;10.82;100.00;102109.84;5204918;28;20039;-72
2022/06/28 00:33:45;;;;;;;9.60;2.10;;;;;;;10.91;100.00;102108.16;5211352;28;20029;-74
2022/06/28 00:36:15;;;;;;;8.82;2.13;;;;;;;10.97;100.00;102110.28;5224275;28;20021;-72
2022/06/28 00:38:46;;;;;;;6.28;2.25;;;;;;;11.01;100.00;102117.09;5213214;28;20389;-73
2022/06/28 00:41:16;;;;;;;11.35;3.05;;;;;;;10.98;100.00;102125.41;5212134;28;20120;-74
2022/06/28 00:43:47;;;;;;;5.55;1.55;;;;;;;11.00;100.00;102126.13;5216182;28;20092;-73
2022/06/28 00:46:18;;;;;;;4.38;1.67;;;;;;;10.91;100.00;102129.66;5218574;28;20044;-71
2022/06/28 00:48:48;;;;;;;11.57;2.53;;;;;;;10.93;100.00;102124.97;5214929;28;20017;-70
2022/06/28 00:51:19;;;;;;;2.97;1.52;;;;;;;10.97;100.00;102123.72;5222418;28;20028;-71
2022/06/28 00:53:50;;;;;;;7.93;1.75;;;;;;;10.96;100.00;102126.56;5225184;28;20017;-71
2022/06/28 00:56:21;;;;;;;8.05;2.40;;;;;;;10.94;100.00;102129.34;5219998;28;20562;-71
2022/06/28 00:58:55;;;;;;;6.63;2.47;;;;;;;10.93;100.00;102133.03;5217411;28;20033;-71
2022/06/28 01:01:26;;;;;;;4.88;1.80;;;;;;;10.91;100.00;102124.28;5213228;28;20498;-70
2022/06/28 01:03:57;;;;;;;7.32;1.73;;;;;;;10.94;100.00;102118.59;5224705;28;20025;-71
2022/06/28 01:06:28;;;;;;;8.63;1.98;;;;;;;10.98;100.00;102124.56;5205147;28;20033;-72
2022/06/28 01:08:59;;;;;;;9.32;2.75;;;;;;;10.99;100.00;102127.09;5207757;28;20060;-71
2022/06/28 01:11:29;;;;;;;8.43;2.08;;;;;;;10.98;100.00;102125.41;5218277;28;20170;-73
2022/06/28 01:14:03;;;;;;;6.85;2.20;;;;;;;11.02;100.00;102126.84;5207015;28;20041;-71
2022/06/28 01:16:36;;;;;;;2.33;1.80;;;;;;;11.02;100.00;102126.84;5216676;28;20016;-72
2022/06/28 01:19:08;;;;;;;5.85;1.90;;;;;;;11.02;100.00;102129.53;5204681;28;20116;-72
2022/06/28 01:21:39;;;;;;;4.70;1.88;;;;;;;11.03;100.00;102128.53;5217082;28;20024;-69
2022/06/28 01:24:09;;;;;;;8.65;1.92;;;;;;;11.01;100.00;102129.66;5215255;28;20399;-72
2022/06/28 01:26:46;;;;;;;5.72;1.60;;;;;;;11.00;100.00;102128.81;5217745;28;20028;-72
2022/06/28 01:29:17;;;;;;;6.40;1.88;;;;;;;11.01;100.00;102124.31;5207540;28;20029;-72
2022/06/28 01:31:47;;;;;;;2.55;1.48;;;;;;;10.96;100.00;102127.41;5208024;28;20082;-73
2022/06/28 01:34:19;;;;;;;10.73;2.17;;;;;;;10.91;100.00;102128.78;5212783;28;20021;-74
2022/06/28 01:36:50;;;;;;;5.10;1.60;;;;;;;10.87;100.00;102128.22;5217621;28;20111;-72
2022/06/28 01:39:20;;;;;;;3.30;1.73;;;;;;;10.82;100.00;102125.94;5216661;28;20482;-72
2022/06/28 01:41:51;;;;;;;6.40;1.60;;;;;;;10.77;100.00;102130.03;5216594;28;20029;-71
2022/06/28 01:44:22;;;;;;;5.80;1.60;;;;;;;10.73;100.00;102120.53;5217439;28;20047;-73
2022/06/28 01:46:57;;;;;;;8.90;2.28;;;;;;;10.67;100.00;102123.78;5224518;28;20020;-73
2022/06/28 01:49:27;;;;;;;4.78;1.92;;;;;;;10.60;100.00;102131.53;5208486;28;20063;-72
2022/06/28 01:51:59;;;;;;;5.55;2.28;;;;;;;10.58;100.00;102137.00;5203959;28;20483;-72
2022/06/28 01:54:29;;;;;;;13.00;1.70;;;;;;;10.53;100.00;102131.19;5216859;28;20030;-71
2022/06/28 01:57:02;;;;;;;14.73;2.58;;;;;;;10.49;100.00;102129.78;5203666;28;20025;-73
2022/06/28 01:59:33;;;;;;;6.35;2.20;;;;;;;10.43;100.00;102137.50;5217251;28;20032;-74
2022/06/28 02:02:04;;;;;;;7.57;1.90;;;;;;;10.39;100.00;102139.59;5216624;28;20056;-73
2022/06/28 02:04:35;;;;;;;4.10;1.63;;;;;;;10.36;100.00;102135.38;5217611;28;20075;-73
2022/06/28 02:07:05;;;;;;;5.88;2.33;;;;;;;10.36;100.00;102139.88;5216595;28;20099;-71
2022/06/28 02:09:36;;;;;;;11.05;1.98;;;;;;;10.31;100.00;102134.06;5212302;28;20040;-71
2022/06/28 02:12:11;;;;;;;7.28;1.88;;;;;;;10.26;100.00;102136.28;5207405;28;20025;-72
2022/06/28 02:14:41;;;;;;;7.43;2.13;;;;;;;10.25;100.00;102132.78;5214170;28;20029;-72
2022/06/28 02:17:12;;;;;;;5.95;1.92;;;;;;;10.23;100.00;102132.00;5224238;28;20021;-71
2022/06/28 02:19:43;;;;;;;8.68;2.22;;;;;;;10.21;100.00;102130.44;5212519;28;20064;-72
2022/06/28 02:22:14;;;;;;;6.00;1.83;;;;;;;10.20;100.00;102134.13;5208979;28;20491;-72
2022/06/28 02:24:44;;;;;;;4.32;2.08;;;;;;;10.18;100.00;102136.06;5211282;28;20028;-72
2022/06/28 02:27:15;;;;;;;8.25;2.40;;;;;;;10.15;100.00;102139.88;5203799;28;20494;-72
2022/06/28 02:29:45;;;;;;;6.15;2.30;;;;;;;10.13;100.00;102142.66;5203458;28;20056;-73
2022/06/28 02:32:16;;;;;;;8.57;2.72;;;;;;;10.11;100.00;102144.66;5205533;28;20068;-72
2022/06/28 02:40:25;;;;;;;4.32;2.00;;;;;;;9.93;100.00;102148.88;5207466;28;20025;-72
2022/06/28 02:42:58;;;;;;;19.40;2.47;;;;;;;9.87;100.00;102146.72;5220309;28;20463;-72
2022/06/28 02:45:30;;;;;;;13.05;2.42;;;;;;;9.81;100.00;102156.16;5208005;28;20395;-72
2022/06/28 02:48:02;;;;;;;8.02;2.33;;;;;;;9.80;100.00;102153.59;5220529;28;20110;-72
2022/06/28 02:50:33;;;;;;;3.90;1.90;;;;;;;9.76;100.00;102157.53;5208151;28;20029;-72
2022/06/28 02:53:03;;;;;;;5.82;1.90;;;;;;;9.70;100.00;102152.69;5208369;28;20454;-70
2022/06/28 02:55:34;;;;;;;6.68;2.10;;;;;;;9.67;100.00;102155.59;5207626;28;20026;-71
2022/06/28 02:58:04;;;;;;;3.88;1.77;;;;;;;9.63;100.00;102154.16;5208273;28;20029;-70
2022/06/28 03:00:35;;;;;;;3.53;1.92;;;;;;;9.60;100.00;102161.47;5207971;28;20072;-70
2022/06/28 03:03:06;;;;;;;8.70;2.65;;;;;;;9.60;100.00;102168.69;5225635;28;20053;-70
2022/06/28 03:05:36;;;;;;;5.07;2.05;;;;;;;9.58;100.00;102165.25;5225734;28;20025;-70
2022/06/28 03:08:07;;;;;;;8.93;2.67;;;;;;;9.55;100.00;102161.00;5206590;28;20031;-71
2022/06/28 03:10:38;;;;;;;5.97;1.88;;;;;;;9.51;100.00;102164.06;5223844;28;20017;-70
2022/06/28 03:13:08;;;;;;;8.30;2.17;;;;;;;9.47;100.00;102157.25;5227289;28;20063;-70
2022/06/28 03:15:39;;;;;;;6.93;2.08;;;;;;;9.42;100.00;102163.00;5213454;28;20112;-70
2022/06/28 03:18:09;;;;;;;8.25;2.58;;;;;;;9.39;100.00;102165.06;5213387;28;20037;-70
2022/06/28 03:20:40;;;;;;;18.08;2.25;;;;;;;9.37;100.00;102159.84;5212217;28;20022;-72
2022/06/28 03:23:11;;;;;;;6.63;1.90;;;;;;;9.40;100.00;102161.44;5206592;28;20032;-71
2022/06/28 03:25:41;;;;;;;6.15;2.10;;;;;;;9.42;100.00;102170.19;5227017;28;20079;-70
2022/06/28 03:28:12;;;;;;;5.38;1.88;;;;;;;9.37;100.00;102172.41;5222886;28;20033;-70
2022/06/28 03:30:43;;;;;;;6.63;2.00;;;;;;;9.32;100.00;102173.63;5214834;28;20060;-71
2022/06/28 03:33:13;;;;;;;7.97;1.88;;;;;;;9.29;100.00;102173.03;5210585;28;20029;-70
2022/06/28 03:35:44;;;;;;;6.38;1.98;;;;;;;9.23;100.00;102182.41;5216282;28;20075;-71
2022/06/28 03:38:14;;;;;;;7.22;1.90;;;;;;;9.21;100.00;102187.03;5212326;28;20021;-71
2022/06/28 03:40:45;;;;;;;5.55;1.90;;;;;;;9.20;100.00;102192.53;5214973;28;20037;-71
2022/06/28 03:43:15;;;;;;;14.07;2.28;;;;;;;9.18;100.00;102200.66;5224180;28;20063;-71
2022/06/28 03:45:46;;;;;;;6.53;2.63;;;;;;;9.17;100.00;102198.13;5213344;28;20028;-70
2022/06/28 03:48:16;;;;;;;5.47;2.20;;;;;;;9.18;100.00;102207.84;5216343;28;20079;-71
2022/06/28 03:50:47;;;;;;;14.30;3.03;;;;;;;9.18;100.00;102207.84;5205904;28;20040;-72
2022/06/28 03:53:17;;;;;;;6.03;2.10;;;;;;;9.18;100.00;102207.84;5214100;28;20036;-71
2022/06/28 03:55:48;;;;;;;10.82;3.10;;;;;;;9.15;100.00;102217.00;5225643;28;20033;-71
2022/06/28 03:58:18;;;;;;;8.07;2.40;;;;;;;9.15;100.00;102221.50;5220133;28;20302;-71
2022/06/28 04:00:49;;;;;;;7.55;2.65;;;;;;;9.13;100.00;102213.56;5223517;28;20104;-71
2022/06/28 04:03:19;;;;;;;12.05;2.55;;;;;;;9.18;100.00;102210.53;5216220;28;20036;-71
2022/06/28 04:05:50;;;;;;;5.70;2.00;;;;;;;9.21;100.00;102208.47;5221739;28;20100;-70
2022/06/28 04:08:21;;;;;;;5.68;2.70;;;;;;;9.23;100.00;102203.81;5205337;28;20036;-70
2022/06/28 04:11:13;;;;;;;9.13;2.28;;;;;;;9.27;100.00;102207.09;5205751;28;20069;-71
2022/06/28 04:13:44;;;;;;;5.10;1.52;;;;;;;9.30;100.00;102209.56;5205572;28;20028;-71
2022/06/28 04:16:16;;;;;;;4.95;1.88;;;;;;;9.31;100.00;102201.38;5215843;28;20382;-71
2022/06/28 04:18:47;;;;;;;4.10;1.55;;;;;;;9.33;100.00;102214.63;5208027;28;20403;-71
2022/06/28 04:21:19;;;;;;;7.35;2.50;;;;;;;9.38;100.00;102209.75;5217009;28;20020;-73
2022/06/28 04:23:49;;;;;;;8.30;2.42;;;;;;;9.44;100.00;102211.97;5226046;28;20036;-71
2022/06/28 04:26:20;;;;;;;7.95;2.40;;;;;;;9.50;100.00;102211.44;5225770;28;20017;-71
2022/06/28 04:28:50;;;;;;;6.80;2.13;;;;;;;9.54;100.00;102209.38;5223118;28;20029;-71
2022/06/28 04:31:21;;;;;;;12.32;3.70;;;;;;;9.57;100.00;102206.44;5211062;28;20052;-71
2022/06/28 04:33:52;;;;;;;7.50;2.33;;;;;;;9.60;100.00;102200.81;5205344;28;20021;-70
2022/06/28 04:36:23;;;;;;;8.45;2.90;;;;;;;9.65;100.00;102203.13;5207000;28;20029;-70
2022/06/28 04:38:53;;;;;;;7.82;2.90;;;;;;;9.69;100.00;102207.22;5216069;28;20034;-70
2022/06/28 04:41:24;;;;;;;5.85;2.25;;;;;;;9.73;100.00;102197.97;5204616;28;20068;-71
2022/06/28 04:43:55;;;;;;;8.52;2.97;;;;;;;9.76;100.00;102203.06;5215916;28;20024;-70
2022/06/28 04:46:26;;;;;;;5.60;1.92;;;;;;;9.80;100.00;102204.53;5222248;28;20506;-70
2022/06/28 04:48:56;;;;;;;7.47;2.30;;;;;;;9.78;100.00;102204.63;5225470;28;20070;-70
2022/06/28 04:51:27;;;;;;;11.35;2.90;;;;;;;9.82;100.00;102200.72;5211970;28;20021;-71
2022/06/28 04:53:57;;;;;;;10.55;2.60;;;;;;;9.91;100.00;102199.13;5211266;28;20064;-71
2022/06/28 04:56:28;;;;;;;6.13;2.53;;;;;;;10.04;100.00;102202.47;5224748;28;20078;-71
2022/06/28 04:58:58;;;;;;;8.30;2.55;;;;;;;10.20;100.00;102209.22;5220039;28;20028;-73
2022/06/28 05:01:29;;;;;;;7.40;2.65;;;;;;;10.37;100.00;102214.00;5228679;28;20035;-71
2022/06/28 05:03:59;;;;;;;7.90;2.58;;;;;;;10.51;100.00;102218.19;5229062;28;20018;-71
2022/06/28 05:06:30;;;;;;;14.35;3.10;;;;;;;10.66;100.00;102207.97;5204990;28;20021;-71
2022/06/28 05:09:00;;;;;;;15.48;3.40;;;;;;;10.80;100.00;102216.50;5209060;28;20402;-71
2022/06/28 05:11:31;;;;;;;8.18;2.58;;;;;;;10.99;100.00;102214.88;5225143;28;20017;-72
2022/06/28 05:14:01;;;;;;;12.00;3.67;;;;;;;11.13;100.00;102219.88;5224042;28;20029;-71
2022/06/28 05:16:32;;;;;;;6.25;2.53;;;;;;;11.31;100.00;102217.38;5224905;28;20483;-73
2022/06/28 05:19:02;;;;;;;6.25;2.03;;;;;;;11.49;100.00;102220.25;5209230;28;20091;-71
2022/06/28 05:21:33;;;;;;;9.05;3.25;;;;;;;11.64;100.00;102213.47;5217526;28;20100;-71
2022/06/28 05:24:05;;;;;;;5.85;2.42;;;;;;;11.81;100.00;102210.09;5190519;28;20030;-71
2022/06/28 05:26:35;;;;;;;10.23;2.90;;;;;;;11.97;100.00;102216.78;5219144;28;20028;-72
2022/06/28 05:29:06;;;;;;;9.02;2.78;;;;;;;12.12;100.00;102209.97;5221105;28;20037;-71
2022/06/28 05:31:36;;;;;;;7.13;3.08;;;;;;;12.28;100.00;102204.00;5206248;28;20309;-71
2022/06/28 05:34:08;;;;;;;13.43;3.83;;;;;;;12.41;100.00;102208.09;5214388;28;20072;-72
2022/06/28 05:36:39;;;;;;;6.72;2.63;;;;;;;12.57;100.00;102203.94;5224857;28;20118;-72
2022/06/28 05:39:11;;;;;;;12.10;3.13;;;;;;;12.69;100.00;102211.69;5212873;28;20426;-72
2022/06/28 05:41:41;;;;;;;6.93;2.70;;;;;;;12.85;100.00;102208.38;5209899;28;20509;-71
2022/06/28 05:44:13;;;;;;;10.13;2.70;;;;;;;13.00;100.00;102205.19;5224037;28;20021;-71
2022/06/28 05:46:44;;;;;;;7.28;2.67;;;;;;;13.11;100.00;102203.16;5208953;28;20013;-71
2022/06/28 05:49:14;;;;;;;4.30;2.00;;;;;;;13.29;100.00;102199.66;5210071;28;20471;-72
2022/06/28 05:51:45;;;;;;;4.88;2.00;;;;;;;13.43;100.00;102204.56;5224502;28;20020;-72
2022/06/28 05:54:15;;;;;;;6.35;2.35;;;;;;;13.57;100.00;102197.78;5224025;28;20318;-71
2022/06/28 05:56:46;;;;;;;11.23;2.45;;;;;;;13.71;100.00;102191.88;5214088;28;20049;-71
2022/06/28 05:59:16;;;;;;;12.30;2.47;;;;;;;13.86;100.00;102193.03;5221065;28;20108;-71
2022/06/28 06:01:47;;;;;;;7.50;2.40;;;;;;;14.15;100.00;102194.59;5213177;28;20028;-72
2022/06/28 06:04:18;;;;;;;8.27;2.03;;;;;;;14.63;100.00;102206.78;5221956;28;20048;-72
2022/06/28 06:06:49;;;;;;;4.82;1.70;;;;;;;15.54;100.00;102204.25;5226018;28;20025;-72
2022/06/28 06:09:20;;;;;;;8.43;2.10;;;;;;;16.31;100.00;102188.56;5215084;28;20028;-72
2022/06/28 06:11:50;;;;;;;6.35;1.42;;;;;;;17.09;100.00;102193.28;5221416;28;20017;-72
2022/06/28 06:14:21;;;;;;;8.98;1.85;;;;;;;17.89;100.00;102184.00;5228330;28;20029;-72
2022/06/28 06:16:52;;;;;;;9.10;1.80;;;;;;;18.26;100.00;102194.88;5213372;28;20025;-72
2022/06/28 06:19:22;;;;;;;10.25;1.90;;;;;;;18.79;100.00;102194.88;5213406;28;20021;-73
2022/06/28 06:21:53;;;;;;;8.32;1.92;;;;;;;19.17;100.00;102200.16;5207544;28;20108;-70
2022/06/28 06:24:23;;;;;;;4.38;1.40;;;;;;;19.59;100.00;102202.13;5207573;28;20036;-70
2022/06/28 06:26:54;;;;;;;6.30;1.65;;;;;;;20.01;100.00;102195.03;5220895;28;20028;-70
2022/06/28 06:29:25;;;;;;;6.32;1.40;;;;;;;20.11;100.00;102201.81;5221812;28;20039;-70
2022/06/28 06:31:57;;;;;;;11.07;1.67;;;;;;;19.96;100.00;102201.06;5208497;28;20402;-70
2022/06/28 06:34:27;;;;;;;6.72;1.27;;;;;;;20.22;100.00;102196.88;5207513;28;20426;-70
2022/06/28 06:36:58;;;;;;;4.80;1.35;;;;;;;20.62;100.00;102200.75;5227835;28;20079;-70
2022/06/28 06:39:28;;;;;;;4.63;1.30;;;;;;;20.76;100.00;102199.81;5227210;28;20029;-70
2022/06/28 06:41:59;;;;;;;8.52;1.88;;;;;;;21.05;100.00;102200.59;5215521;28;20116;-70
2022/06/28 06:44:29;;;;;;;6.25;1.23;;;;;;;21.36;100.00;102200.09;5227424;28;20024;-71
2022/06/28 06:47:00;;;;;;;7.45;1.42;;;;;;;21.28;100.00;102192.91;5227706;28;20021;-70
2022/06/28 06:49:30;;;;;;;4.03;1.40;;;;;;;21.71;100.00;102198.94;5214555;28;20067;-70
2022/06/28 06:52:01;;;;;;;6.95;1.40;;;;;;;21.55;100.00;102188.41;5227679;28;20017;-70
2022/06/28 06:54:31;;;;;;;8.52;1.13;;;;;;;21.17;100.00;102191.59;5214105;28;20029;-70
2022/06/28 06:57:02;;;;;;;4.22;1.20;;;;;;;21.60;100.00;102193.25;5222402;28;20025;-71
2022/06/28 06:59:32;;;;;;;6.63;1.15;;;;;;;21.80;91.20;102190.56;5213047;28;20378;-71
2022/06/28 07:02:03;;;;;;;10.50;1.70;;;;;;;21.69;95.19;102190.13;5214390;28;20028;-70
2022/06/28 07:04:34;;;;;;;6.95;1.00;;;;;;;22.05;94.72;102190.78;5213961;28;20031;-70
2022/06/28 07:07:05;;;;;;;4.75;1.10;;;;;;;22.25;90.99;102190.81;5213275;28;20038;-71
2022/06/28 07:09:35;;;;;;;5.78;1.30;;;;;;;22.66;84.82;102185.91;5206530;28;20061;-70
2022/06/28 07:12:06;;;;;;;7.55;1.23;;;;;;;22.80;85.38;102194.91;5215820;28;20013;-71
2022/06/28 07:14:37;;;;;;;5.65;1.25;;;;;;;22.60;81.25;102197.69;5227250;28;20478;-71
2022/06/28 07:17:07;;;;;;;4.30;1.10;;;;;;;22.44;83.80;102199.00;5227078;28;20024;-71
2022/06/28 07:19:38;;;;;;;4.53;0.73;;;;;;;22.33;77.27;102194.16;5215480;28;20021;-71
2022/06/28 07:22:09;;;;;;;8.57;1.25;;;;;;;22.07;77.85;102202.31;5210660;28;20567;-71
2022/06/28 07:24:39;;;;;;;4.78;0.90;;;;;;;22.23;81.00;102200.03;5215068;28;20447;-71
2022/06/28 07:27:10;;;;;;;6.18;1.20;;;;;;;22.39;72.84;102204.25;5225727;28;20028;-71
2022/06/28 07:29:40;;;;;;;3.97;0.80;;;;;;;22.65;76.08;102203.38;5210816;28;20037;-71
2022/06/28 07:32:11;;;;;;;7.00;1.23;;;;;;;22.93;80.82;102199.53;5206763;28;20121;-70
2022/06/28 07:34:41;;;;;;;5.40;1.20;;;;;;;22.66;66.26;102193.25;5220680;28;20036;-71
2022/06/28 07:37:12;;;;;;;3.47;0.90;;;;;;;23.02;63.21;102189.19;5218561;28;20079;-71
2022/06/28 07:39:43;;;;;;;1.63;0.60;;;;;;;23.52;64.13;102191.03;5208870;28;20033;-71
2022/06/28 07:42:13;;;;;;;3.75;1.15;;;;;;;23.34;68.55;102192.81;5217246;28;20025;-70
2022/06/28 07:44:44;;;;;;;5.57;1.23;;;;;;;23.49;68.12;102191.50;5218988;28;20554;-71
2022/06/28 07:47:15;;;;;;;8.40;1.55;;;;;;;23.84;67.17;102193.78;5217296;28;20035;-71
2022/06/28 07:52:34;;;;;;;3.33;0.90;;;;;;;23.80;70.97;102181.63;5206067;28;20541;-71
2022/06/28 07:55:08;;;;;;;2.95;0.85;;;;;;;23.58;65.23;102183.00;5214316;28;20028;-71
2022/06/28 07:57:39;;;;;;;5.18;1.00;;;;;;;23.38;64.79;102178.47;5212977;28;20470;-71
2022/06/28 08:00:10;;;;;;;4.43;0.95;;;;;;;23.19;66.98;102177.53;5216022;28;20056;-71
2022/06/28 08:02:40;;;;;;;9.48;1.05;;;;;;;23.04;65.34;102171.47;5218073;28;20100;-71
2022/06/28 08:05:11;;;;;;;5.78;0.80;;;;;;;22.83;67.93;102174.47;5217513;28;20025;-70
2022/06/28 08:07:42;;;;;;;4.68;1.10;;;;;;;23.90;62.56;102167.44;5206979;28;20079;-71
2022/06/28 08:10:13;;;;;;;5.32;0.90;;;;;;;23.92;64.11;102171.63;5205576;28;20064;-71
2022/06/28 08:12:44;;;;;;;5.07;0.90;;;;;;;24.52;60.26;102160.13;5212019;28;20017;-71
2022/06/28 08:15:14;;;;;;;4.82;0.75;;;;;;;24.20;60.51;102154.72;5220202;28;20107;-71
2022/06/28 08:17:45;;;;;;;6.82;1.13;;;;;;;24.18;62.06;102162.31;5217204;28;20067;-71
2022/06/28 08:20:15;;;;;;;8.27;1.20;;;;;;;24.69;59.85;102160.34;5210847;28;20032;-71
2022/06/28 08:22:46;;;;;;;7.20;0.98;;;;;;;25.16;58.53;102156.00;5215324;28;20021;-71
2022/06/28 08:25:16;;;;;;;7.15;1.17;;;;;;;25.06;61.58;102161.19;5212256;28;20100;-71
2022/06/28 08:27:47;;;;;;;7.60;1.00;;;;;;;24.54;56.21;102153.31;5225151;28;20028;-71
2022/06/28 08:30:18;;;;;;;4.72;0.90;;;;;;;24.76;59.83;102148.25;5223308;28;20031;-72
2022/06/28 08:32:48;;;;;;;4.03;0.90;;;;;;;25.60;55.61;102153.03;5213048;28;20029;-71
2022/06/28 08:35:19;;;;;;;2.78;0.90;;;;;;;25.72;54.82;102156.66;5204782;28;20033;-71
2022/06/28 08:37:51;;;;;;;3.67;1.10;;;;;;;25.38;59.87;102156.31;5218387;28;20395;-71
2022/06/28 08:40:25;;;;;;;2.75;1.10;;;;;;;25.17;57.42;102146.69;5213030;28;20086;-71
2022/06/28 08:42:58;;;;;;;4.20;0.93;;;;;;;25.34;58.92;102133.13;5224635;28;20021;-71
2022/06/28 08:45:29;;;;;;;3.78;0.80;;;;;;;25.24;54.91;102143.84;5224970;28;20033;-71
2022/06/28 08:48:09;;;;;;;3.67;0.88;;;;;;;24.90;58.38;102142.56;5225314;28;20036;-71
2022/06/28 08:50:41;;;;;;;2.22;0.90;;;;;;;24.71;60.10;102137.13;5225630;28;20025;-71
2022/06/28 08:53:12;;;;;;;3.75;0.90;;;;;;;24.75;62.23;102137.47;5211914;28;20470;-71
2022/06/28 08:55:43;;;;;;;11.18;1.15;;;;;;;25.62;56.00;102129.75;5210734;28;20555;-71
2022/06/28 08:58:14;;;;;;;2.58;1.00;;;;;;;25.32;61.69;102135.28;5212193;28;20056;-71
2022/06/28 09:00:46;;;;;;;5.05;0.80;;;;;;;25.37;62.67;102129.09;5211948;28;20103;-72
2022/06/28 09:03:19;;;;;;;4.53;0.75;;;;;;;25.17;56.48;102132.13;5225244;28;20025;-71
2022/06/28 09:05:49;;;;;;;7.43;0.70;;;;;;;24.79;59.80;102127.72;5224054;28;20486;-70
2022/06/28 09:08:20;;;;;;;4.85;0.80;;;;;;;24.87;60.45;102127.41;5212033;28;20039;-71
2022/06/28 09:10:50;;;;;;;4.18;0.93;;;;;;;24.99;56.89;102125.56;5208628;28;20021;-71
2022/06/28 09:13:21;;;;;;;2.35;0.70;;;;;;;24.76;58.78;102119.97;5212031;28;20030;-72
2022/06/28 09:15:55;;;;;;;2.25;0.80;;;;;;;24.61;60.35;102119.50;5217514;28;20022;-72
2022/06/28 09:18:43;;;;;;;4.38;0.90;;;;;;;24.88;60.40;102114.53;5204476;28;20025;-71
2022/06/28 09:21:17;;;;;;;7.63;1.25;;;;;;;25.30;60.86;102110.81;5215355;28;20052;-71
2022/06/28 09:23:49;;;;;;;2.85;0.70;;;;;;;25.07;65.37;102109.88;5205889;28;20103;-71
2022/06/28 09:26:21;;;;;;;4.97;1.13;;;;;;;24.79;61.67;102105.75;5216319;28;20028;-72
2022/06/28 09:28:52;;;;;;;4.22;0.95;;;;;;;25.05;63.05;102110.06;5213902;28;20033;-72
2022/06/28 09:31:25;;;;;;;3.50;1.25;;;;;;;25.24;60.96;102097.16;5217367;28;20032;-71
2022/06/28 09:34:13;;;;;;;3.83;1.05;;;;;;;25.31;57.78;102096.00;5215751;28;20029;-72
2022/06/28 09:37:02;;;;;;;5.45;0.85;;;;;;;25.58;58.96;102088.16;5204186;28;20029;-72
2022/06/28 09:39:33;;;;;;;6.50;1.00;;;;;;;25.28;64.64;102093.72;5217142;28;20025;-72
2022/06/28 09:42:05;;;;;;;6.15;1.10;;;;;;;25.01;59.79;102092.41;5212198;28;20024;-71
2022/06/28 09:44:36;;;;;;;4.40;0.88;;;;;;;25.39;62.17;102085.72;5221604;28;20029;-72
2022/06/28 09:47:06;;;;;;;2.92;0.60;;;;;;;24.63;61.91;102076.22;5214005;28;20424;-72
2022/06/28 09:49:37;;;;;;;4.50;0.80;;;;;;;24.35;62.86;102074.84;5220679;28;20033;-72
2022/06/28 09:52:09;;;;;;;2.67;0.80;;;;;;;24.31;61.32;102070.03;5214693;28;20033;-72
2022/06/28 09:54:42;;;;;;;4.45;0.90;;;;;;;24.73;61.23;102066.38;5211000;28;20239;-72
2022/06/28 09:57:13;;;;;;;4.85;0.90;;;;;;;25.21;61.74;102056.44;5210183;28;20032;-72
2022/06/28 09:59:44;;;;;;;4.13;0.90;;;;;;;25.38;62.33;102059.34;5217155;28;20021;-71
2022/06/28 10:02:16;;;;;;;4.70;1.23;;;;;;;25.71;62.42;102054.16;5217783;28;20024;-72
2022/06/28 10:04:47;;;;;;;2.40;1.10;;;;;;;25.51;58.61;102051.72;5216206;28;20056;-72
2022/06/28 10:07:18;;;;;;;1.77;0.70;;;;;;;26.05;63.82;102055.22;5216610;28;20029;-71
2022/06/28 10:09:49;;;;;;;8.43;1.20;;;;;;;25.80;60.59;102058.25;5203893;28;20425;-71
2022/06/28 10:15:09;;;;;;;4.07;0.90;;;;;;;24.42;64.95;102044.63;5204242;28;20475;-72
2022/06/28 10:17:56;;;;;;;3.30;0.90;;;;;;;24.74;67.51;102054.31;5224402;28;20021;-72
2022/06/28 10:20:29;;;;;;;4.32;0.65;;;;;;;24.97;63.97;102037.13;5210784;28;20028;-72
2022/06/28 10:23:37;;;;;;;6.30;1.40;;;;;;;25.27;65.00;102039.03;5212048;28;20022;-72
2022/06/28 10:26:11;;;;;;;5.43;1.00;;;;;;;25.29;60.79;102032.22;5214229;28;20112;-71
2022/06/28 10:28:47;;;;;;;5.20;1.33;;;;;;;25.08;64.92;102024.53;5213619;28;20479;-71
2022/06/28 10:31:37;;;;;;;7.72;0.90;;;;;;;24.77;68.79;102017.34;5210536;28;20033;-72
2022/06/28 10:34:12;;;;;;;8.45;0.93;;;;;;;25.14;71.63;102017.25;5213662;28;20033;-71
2022/06/28 10:36:56;;;;;;;4.15;1.08;;;;;;;25.42;63.00;102019.34;5208413;28;20032;-71
2022/06/28 10:39:29;;;;;;;3.08;0.60;;;;;;;25.28;63.65;102019.56;5209967;28;20534;-72
2022/06/28 10:42:00;;;;;;;6.22;1.10;;;;;;;25.00;62.01;102006.47;5210135;28;20029;-72
2022/06/28 10:44:31;;;;;;;4.03;1.00;;;;;;;24.93;61.54;102005.72;5210754;28;20494;-71
2022/06/28 10:47:01;;;;;;;5.55;0.90;;;;;;;25.11;69.04;102004.00;5221409;28;20032;-72
2022/06/28 10:49:44;;;;;;;3.10;0.65;;;;;;;24.63;63.18;101994.75;5206980;28;20030;-71
2022/06/28 10:52:16;;;;;;;3.88;1.10;;;;;;;24.01;68.20;101997.59;5216779;28;20164;-72
2022/06/28 10:54:57;;;;;;;3.72;1.02;;;;;;;24.30;66.16;101989.69;5227432;28;20031;-71
2022/06/28 10:57:28;;;;;;;3.65;0.85;;;;;;;24.58;70.14;101986.38;5219284;28;20029;-71
2022/06/28 11:00:03;;;;;;;2.35;0.88;;;;;;;25.11;65.77;101979.31;5207334;28;20033;-71
2022/06/28 11:02:52;;;;;;;8.13;0.90;;;;;;;25.15;65.66;101978.59;5220419;28;20021;-72
2022/06/28 11:05:44;;;;;;;3.83;0.80;;;;;;;25.27;69.29;101984.09;5207238;28;20029;-71
2022/06/28 11:08:34;;;;;;;2.80;1.00;;;;;;;24.88;70.60;101985.53;5216791;28;20024;-71
2022/06/28 11:11:05;;;;;;;3.88;1.20;;;;;;;24.80;66.78;101978.47;5213705;28;20033;-71
2022/06/28 11:13:36;;;;;;;5.88;0.90;;;;;;;24.21;67.83;101974.59;5227386;28;20029;-71
2022/06/28 11:16:10;;;;;;;7.82;1.23;;;;;;;23.16;71.29;101969.09;5227138;28;20032;-71
2022/06/28 11:18:40;;;;;;;4.13;0.82;;;;;;;23.14;83.27;101965.72;5213948;28;20028;-71
2022/06/28 11:21:13;;;;;;;4.53;0.70;;;;;;;23.40;78.09;101959.22;5207689;28;20468;-71
2022/06/28 11:23:44;;;;;;;3.67;1.05;;;;;;;23.92;79.70;101959.75;5220217;28;20033;-71
2022/06/28 11:29:04;;;;;;;5.35;0.98;;;;;;;24.39;83.14;101954.56;5225095;28;20056;-71
2022/06/28 11:31:52;;;;;;;3.28;0.75;;;;;;;24.40;79.36;101951.59;5226902;28;20513;-71
2022/06/28 11:34:25;;;;;;;3.15;0.90;;;;;;;24.46;73.48;101952.59;5226856;28;20037;-71
2022/06/28 11:36:56;;;;;;;2.78;0.90;;;;;;;24.83;74.03;101956.03;5227122;28;20021;-72
2022/06/28 11:39:26;;;;;;;3.75;1.38;;;;;;;25.19;72.44;101951.47;5213307;28;20033;-72
2022/06/28 11:41:58;;;;;;;5.60;0.98;;;;;;;25.07;71.96;101956.97;5226844;28;20029;-72
2022/06/28 11:44:28;;;;;;;2.80;0.82;;;;;;;25.02;73.14;101946.66;5212810;28;20026;-72
2022/06/28 11:46:59;;;;;;;6.55;0.82;;;;;;;25.20;75.23;101944.91;5226703;28;20363;-72
2022/06/28 11:49:32;;;;;;;5.03;1.17;;;;;;;25.43;73.32;101939.44;5226794;28;20065;-72
2022/06/28 11:52:03;;;;;;;8.77;1.20;;;;;;;25.49;72.38;101948.63;5216283;28;20030;-73
2022/06/28 11:54:33;;;;;;;2.95;0.80;;;;;;;25.79;67.95;101934.78;5218947;28;20510;-72
2022/06/28 11:57:22;;;;;;;4.32;0.90;;;;;;;25.80;73.29;101939.19;5205796;28;20033;-72
2022/06/28 11:59:55;;;;;;;3.90;1.23;;;;;;;25.99;65.12;101935.22;5214468;28;20028;-73